Search for airport 
image banner adimage banner adimage banner ad
image banner ad

N53 - Stroudsburg-Pocono

Located in East Stroudsburg, United States

ICAO - N53, IATA -

Data provided by Airmate  

General information

Coordinates: N41°2'9" W75°9'38"
Elevation is 480 feet MSL.
Magnetic variation is -11° East
View others Airports in Pennsylvania

Operational data

Special qualification required
Current time UTC:
Current local time:
Weather at : KMPO - Pocono Mountains Muni ( 22 km )
METAR: KMPO 092232Z AUTO 10006KT 10SM -RA SCT005 SCT043 OVC050 04/03 A2989 RMK AO2 P0002 T00390028
View NOTAMs / SUP AIP / TFR affecting this airport [VIEW]
Communications frequencies: [VIEW]

Runways:

RWY identifierQFULength (ft)Width (ft)SurfaceLDA (ft)
0866°308730ASPH
26246°308730ASPH

Airport contact information

Address: East Stroudsburg United States

Satellite view of N53